Terminal Aerodrome Forecast
Issued by NWS Burlington, VT

Home | Current Version | Previous Version | Text Only | Print | Product List | Glossary On
Versions: 1 2 3 4 5 6 7 8 9 10 11 12
878
FTUS41 KBTV 291728
TAFBTV
TAF
KBTV 291728Z 2918/3018 VRB06KT P6SM SCT200
     FM301100 00000KT P6SM FEW250
     FM301700 35006KT P6SM SKC=

USA.gov is the U.S. government's official web portal to all federal, state and local government web resources and services.